createdAt,value
2018-11-23T00:02:08.273Z,99745.77
2018-11-23T00:04:40.092Z,99745.88
2018-11-23T00:07:11.922Z,99743.89
2018-11-23T00:09:45.059Z,99754.24
2018-11-23T00:12:17.517Z,99754.58
2018-11-23T00:14:48.147Z,99755.91
2018-11-23T00:17:18.737Z,99751.92
2018-11-23T00:19:49.395Z,99760.47
2018-11-23T00:22:21.933Z,99761.45
2018-11-23T00:24:53.754Z,99769.41
2018-11-23T00:27:26.055Z,99767.31
2018-11-23T00:29:57.166Z,99761.18
2018-11-23T00:32:31.854Z,99764.37
2018-11-23T00:35:03.349Z,99769.95
2018-11-23T00:37:34.454Z,99776.20
2018-11-23T00:40:29.460Z,99779.94
2018-11-23T00:43:01.838Z,99780.79
2018-11-23T00:45:42.793Z,99788.10
2018-11-23T00:48:08.205Z,99786.05
2018-11-23T00:50:41.093Z,99781.38
2018-11-23T00:53:13.197Z,99784.13
2018-11-23T00:58:37.051Z,99783.59
2018-11-23T01:01:08.189Z,99778.33
2018-11-23T01:03:40.161Z,99780.56
2018-11-23T01:06:14.479Z,99774.20
2018-11-23T01:08:46.156Z,99783.65
2018-11-23T01:11:17.229Z,99782.99
2018-11-23T01:13:50.970Z,99783.12
2018-11-23T01:16:29.035Z,99776.12
2018-11-23T01:19:03.153Z,99779.20
2018-11-23T01:21:36.863Z,99770.85
2018-11-23T01:24:08.007Z,99772.18
2018-11-23T01:26:41.449Z,99770.11
2018-11-23T01:29:13.338Z,99772.48
2018-11-23T01:31:44.032Z,99772.66
2018-11-23T01:34:17.290Z,99769.76
2018-11-23T01:36:50.174Z,99769.19
2018-11-23T01:39:25.521Z,99772.52
2018-11-23T01:41:57.382Z,99775.32
2018-11-23T01:44:30.505Z,99776.71
2018-11-23T01:47:01.042Z,99776.80
2018-11-23T01:49:41.082Z,99770.67
2018-11-23T01:52:14.595Z,99775.84
2018-11-23T01:54:46.374Z,99771.02
2018-11-23T01:57:17.463Z,99770.61
2018-11-23T01:59:51.132Z,99773.29
2018-11-23T02:02:23.485Z,99776.45
2018-11-23T02:04:54.241Z,99776.28
2018-11-23T02:07:27.281Z,99774.02
2018-11-23T02:10:01.286Z,99772.44
2018-11-23T02:12:34.631Z,99765.92
2018-11-23T02:15:10.709Z,99771.05
2018-11-23T02:17:41.402Z,99764.93
2018-11-23T02:20:24.891Z,99771.42
2018-11-23T02:23:03.694Z,99769.33
2018-11-23T02:25:39.158Z,99763.42
2018-11-23T02:28:11.534Z,99764.37
2018-11-23T02:30:44.380Z,99761.91
2018-11-23T02:33:17.549Z,99765.56
2018-11-23T02:35:52.818Z,99765.16
2018-11-23T02:38:23.772Z,99769.08
2018-11-23T02:40:57.470Z,99763.95
2018-11-23T02:43:30.845Z,99767.33
2018-11-23T02:46:07.816Z,99769.06
2018-11-23T02:48:39.769Z,99769.44
2018-11-23T02:51:10.726Z,99767.72
2018-11-23T02:53:43.539Z,99767.72
2018-11-23T02:56:14.782Z,99764.87
2018-11-23T02:58:47.667Z,99763.70
2018-11-23T03:01:20.748Z,99761.55
2018-11-23T03:03:53.381Z,99761.76
2018-11-23T03:06:24.706Z,99767.14
2018-11-23T03:08:55.565Z,99764.47
2018-11-23T03:11:28.546Z,99763.91
2018-11-23T03:13:59.526Z,99774.42
2018-11-23T03:16:31.521Z,99766.82
2018-11-23T03:19:02.721Z,99771.34
2018-11-23T03:21:33.905Z,99774.73
2018-11-23T03:24:07.085Z,99775.82
2018-11-23T03:26:39.178Z,99775.75
2018-11-23T03:29:11.798Z,99776.08
2018-11-23T03:31:45.226Z,99769.63
2018-11-23T03:34:16.913Z,99778.57
2018-11-23T03:36:47.438Z,99781.57
2018-11-23T03:39:23.707Z,99779.39
2018-11-23T03:41:56.848Z,99774.23
2018-11-23T03:44:30.773Z,99779.25
2018-11-23T03:47:03.234Z,99777.56
2018-11-23T03:49:33.565Z,99784.25
2018-11-23T03:52:04.415Z,99783.59
2018-11-23T03:54:38.125Z,99777.97
2018-11-23T03:57:09.224Z,99788.28
2018-11-23T03:59:40.859Z,99789.45
2018-11-23T04:02:12.133Z,99789.38
2018-11-23T04:04:44.997Z,99795.08
2018-11-23T04:07:18.049Z,99792.39
2018-11-23T04:09:51.443Z,99790.90
2018-11-23T04:12:21.961Z,99787.63
2018-11-23T04:14:54.806Z,99777.34
2018-11-23T04:17:30.939Z,99784.09
2018-11-23T04:20:03.155Z,99783.27
2018-11-23T04:22:35.120Z,99780.59
2018-11-23T04:25:08.509Z,99786.78
2018-11-23T04:27:39.594Z,99786.31
2018-11-23T04:30:20.504Z,99788.12
2018-11-23T04:33:03.404Z,99786.56
2018-11-23T04:35:36.779Z,99786.27
2018-11-23T04:38:08.113Z,99791.89
2018-11-23T04:40:56.731Z,99798.30
2018-11-23T04:43:29.136Z,99798.92
2018-11-23T04:46:02.004Z,99803.91
2018-11-23T04:48:33.142Z,99800.13
2018-11-23T04:51:06.129Z,99798.44
2018-11-23T04:53:38.293Z,99796.38
2018-11-23T04:56:09.179Z,99802.46
2018-11-23T04:58:40.323Z,99797.97
2018-11-23T05:01:12.220Z,99799.38
2018-11-23T05:03:44.285Z,99801.21
2018-11-23T05:06:27.351Z,99799.80
2018-11-23T05:09:08.528Z,99806.77
2018-11-23T05:11:39.326Z,99800.88
2018-11-23T05:14:11.367Z,99807.73
2018-11-23T05:16:43.469Z,99806.06
2018-11-23T05:19:15.280Z,99809.83
2018-11-23T05:21:47.595Z,99809.83
2018-11-23T05:24:20.167Z,99817.52
2018-11-23T05:26:51.128Z,99810.21
2018-11-23T05:29:24.738Z,99808.59
2018-11-23T05:31:57.035Z,99809.14
2018-11-23T05:34:28.447Z,99813.53
2018-11-23T05:37:01.178Z,99811.66
2018-11-23T05:39:32.568Z,99814.84
2018-11-23T05:42:05.348Z,99814.48
2018-11-23T05:44:36.237Z,99811.18
2018-11-23T05:47:08.618Z,99820.90
2018-11-23T05:49:39.298Z,99817.87
2018-11-23T05:52:11.358Z,99819.34
2018-11-23T05:54:43.471Z,99818.14
2018-11-23T05:57:14.372Z,99822.62
2018-11-23T05:59:46.487Z,99826.63
2018-11-23T06:02:17.339Z,99819.22
2018-11-23T06:04:50.605Z,99824.58
2018-11-23T06:07:23.895Z,99825.70
2018-11-23T06:09:56.646Z,99683.63
2018-11-23T06:12:27.325Z,99840.41
2018-11-23T06:14:58.004Z,99833.47
2018-11-23T06:17:30.646Z,99827.78
2018-11-23T06:20:01.822Z,99832.30
2018-11-23T06:22:34.815Z,99840.90
2018-11-23T06:25:13.269Z,99844.50
2018-11-23T06:27:57.280Z,99850.73
2018-11-23T06:30:30.074Z,99843.41
2018-11-23T06:33:11.736Z,99852.92
2018-11-23T06:35:55.049Z,99856.27
2018-11-23T06:38:27.677Z,99852.70
2018-11-23T06:41:01.866Z,99866.48
2018-11-23T06:43:34.614Z,99861.02
2018-11-23T06:46:10.068Z,99853.80
2018-11-23T06:48:40.707Z,99858.76
2018-11-23T06:51:12.670Z,99867.66
2018-11-23T06:53:44.618Z,99875.69
2018-11-23T06:56:18.401Z,99876.12
2018-11-23T06:58:51.763Z,99877.08
2018-11-23T07:01:24.493Z,99893.58
2018-11-23T07:03:57.480Z,99887.55
2018-11-23T07:06:30.590Z,99884.80
2018-11-23T07:09:01.612Z,99885.47
2018-11-23T07:11:32.380Z,99890.67
2018-11-23T07:14:07.872Z,99882.32
2018-11-23T07:16:38.828Z,99885.02
2018-11-23T07:19:09.398Z,99892.84
2018-11-23T07:21:41.744Z,99884.80
2018-11-23T07:24:15.813Z,99887.74
2018-11-23T07:26:48.570Z,99887.66
2018-11-23T07:29:19.610Z,99891.46
2018-11-23T07:31:50.317Z,99895.50
2018-11-23T07:34:23.882Z,99903.19
2018-11-23T07:36:57.157Z,99905.34
2018-11-23T07:39:40.881Z,99906.61
2018-11-23T07:42:23.614Z,99900.02
2018-11-23T07:44:54.707Z,99893.92
2018-11-23T07:47:27.771Z,99895.14
2018-11-23T07:50:01.277Z,99897.73
2018-11-23T07:52:31.620Z,99895.58
2018-11-23T07:55:03.460Z,99893.27
2018-11-23T07:57:35.801Z,99895.31
2018-11-23T08:00:13.406Z,99901.86
2018-11-23T08:02:56.443Z,99903.27
2018-11-23T08:05:28.541Z,99903.77
2018-11-23T08:08:02.076Z,99894.41
2018-11-23T08:10:36.749Z,99890.91
2018-11-23T08:13:08.878Z,99885.67
2018-11-23T08:15:42.330Z,99895.23
2018-11-23T08:18:12.992Z,99862.81
2018-11-23T08:20:46.599Z,99888.29
2018-11-23T08:23:22.059Z,99888.75
2018-11-23T08:25:55.209Z,99896.45
2018-11-23T08:28:26.082Z,99899.83
2018-11-23T08:30:59.174Z,99897.90
2018-11-23T08:33:29.522Z,99898.48
2018-11-23T08:35:59.824Z,99900.69
2018-11-23T08:38:30.092Z,99898.20
2018-11-23T08:41:03.849Z,99898.61
2018-11-23T08:43:37.291Z,99894.84
2018-11-23T08:46:08.455Z,99893.88
2018-11-23T08:48:40.142Z,99894.23
2018-11-23T08:51:12.422Z,99894.23
2018-11-23T08:53:44.665Z,99891.80
2018-11-23T08:56:15.248Z,99885.86
2018-11-23T08:58:47.555Z,99881.86
2018-11-23T09:01:17.948Z,99895.11
2018-11-23T09:03:48.498Z,99886.44
2018-11-23T09:06:19.076Z,99878.61
2018-11-23T09:08:52.453Z,99893.72
2018-11-23T09:11:25.290Z,99893.45
2018-11-23T09:13:56.504Z,99895.86
2018-11-23T09:16:29.494Z,99897.48
2018-11-23T09:19:00.926Z,99897.48
2018-11-23T09:21:34.085Z,99902.27
2018-11-23T09:24:06.542Z,99903.82
2018-11-23T09:26:39.213Z,99899.48
2018-11-23T09:29:13.555Z,99902.41
2018-11-23T09:31:46.166Z,99901.92
2018-11-23T09:34:18.593Z,99894.25
2018-11-23T09:36:50.395Z,99894.19
2018-11-23T09:39:21.420Z,99887.82
2018-11-23T09:41:53.515Z,99877.31
2018-11-23T09:44:24.327Z,99878.00
2018-11-23T09:46:55.715Z,99888.27
2018-11-23T09:49:28.165Z,99890.17
2018-11-23T09:52:01.420Z,99888.38
2018-11-23T09:54:34.545Z,99883.59
2018-11-23T09:57:07.759Z,99882.22
2018-11-23T09:59:38.528Z,99873.15
2018-11-23T10:02:09.483Z,99871.63
2018-11-23T10:04:42.354Z,99865.20
2018-11-23T10:07:13.051Z,99865.20
2018-11-23T10:09:48.536Z,99870.95
2018-11-23T10:12:19.464Z,99872.91
2018-11-23T10:14:52.740Z,99869.00
2018-11-23T10:17:23.651Z,99866.45
2018-11-23T10:19:58.181Z,99859.67
2018-11-23T10:22:27.894Z,99856.60
2018-11-23T10:25:00.749Z,99859.11
2018-11-23T10:27:31.519Z,99854.05
2018-11-23T10:30:02.674Z,99847.78
2018-11-23T10:32:34.617Z,99848.80
2018-11-23T10:35:07.086Z,99851.45
2018-11-23T10:37:39.302Z,99851.25
2018-11-23T10:40:20.858Z,99849.09
2018-11-23T10:43:03.286Z,99843.67
2018-11-23T10:45:38.162Z,99853.46
2018-11-23T10:48:09.666Z,99859.09
2018-11-23T10:50:42.091Z,99857.65
2018-11-23T10:53:15.341Z,99862.58
2018-11-23T10:55:47.670Z,99856.58
2018-11-23T10:58:20.630Z,99859.69
2018-11-23T11:00:56.507Z,99862.72
2018-11-23T11:03:34.073Z,99855.70
2018-11-23T11:06:13.204Z,99853.17
2018-11-23T11:08:45.464Z,99851.13
2018-11-23T11:11:18.001Z,99848.92
2018-11-23T11:13:49.990Z,99832.34
2018-11-23T11:16:22.038Z,99833.37
2018-11-23T11:18:54.162Z,99827.84
2018-11-23T11:21:26.714Z,99830.30
2018-11-23T11:23:58.013Z,99824.06
2018-11-23T11:26:31.060Z,99810.86
2018-11-23T11:29:07.651Z,99795.45
2018-11-23T11:31:41.187Z,99796.32
2018-11-23T11:34:14.989Z,99802.21
2018-11-23T11:36:47.832Z,99790.30
2018-11-23T11:39:24.857Z,99793.64
2018-11-23T11:41:57.160Z,99790.20
2018-11-23T11:44:30.171Z,99796.32
2018-11-23T11:47:02.125Z,99787.98
2018-11-23T11:49:35.212Z,99797.45
2018-11-23T11:52:08.001Z,99798.44
2018-11-23T11:54:40.851Z,99787.64
2018-11-23T11:57:11.887Z,99788.83
2018-11-23T11:59:44.132Z,99788.23
2018-11-23T12:02:14.757Z,99779.87
2018-11-23T12:04:45.248Z,99785.59
2018-11-23T12:07:17.807Z,99787.65
2018-11-23T12:09:52.945Z,99789.27
2018-11-23T12:12:26.186Z,99793.64
2018-11-23T12:14:56.873Z,99787.56
2018-11-23T12:17:28.818Z,99785.30
2018-11-23T12:20:07.459Z,99780.72
2018-11-23T12:22:41.571Z,99769.20
2018-11-23T12:25:12.441Z,99777.19
2018-11-23T12:27:58.242Z,99773.79
2018-11-23T12:30:35.837Z,99771.98
2018-11-23T12:33:09.571Z,99774.06
2018-11-23T12:35:41.931Z,99766.30
2018-11-23T12:38:15.091Z,99764.92
2018-11-23T12:40:47.008Z,99758.50
2018-11-23T12:43:18.304Z,99761.59
2018-11-23T12:45:51.163Z,99757.87
2018-11-23T12:48:21.974Z,99762.58
2018-11-23T12:50:59.443Z,99748.86
2018-11-23T12:53:30.997Z,99742.02
2018-11-23T12:56:04.788Z,99752.31
2018-11-23T12:58:41.112Z,99758.47
2018-11-23T13:01:12.485Z,99755.34
2018-11-23T13:03:45.572Z,99758.03
2018-11-23T13:06:19.357Z,99759.44
2018-11-23T13:08:53.882Z,99750.23
2018-11-23T13:11:37.682Z,99747.95
2018-11-23T13:14:08.974Z,99755.62
2018-11-23T13:16:41.348Z,99739.79
2018-11-23T13:19:11.873Z,99737.36
2018-11-23T13:21:42.299Z,99741.20
2018-11-23T13:24:16.421Z,99741.27
2018-11-23T13:26:48.322Z,99744.45
2018-11-23T13:29:20.756Z,99741.96
2018-11-23T13:31:52.335Z,99743.49
2018-11-23T13:34:26.805Z,99744.17
2018-11-23T13:36:58.186Z,99739.69
2018-11-23T13:39:32.127Z,99738.28
2018-11-23T13:42:02.909Z,99738.00
2018-11-23T13:44:35.612Z,99739.59
2018-11-23T13:47:07.500Z,99738.00
2018-11-23T13:49:39.562Z,99737.94
2018-11-23T13:52:15.554Z,99732.89
2018-11-23T13:54:46.457Z,99744.76
2018-11-23T13:57:20.676Z,99744.92
2018-11-23T13:59:53.149Z,99737.22
2018-11-23T14:02:32.676Z,99732.44
2018-11-23T14:05:07.719Z,99731.23
2018-11-23T14:07:38.317Z,99732.81
2018-11-23T14:10:11.705Z,99728.52
2018-11-23T14:12:49.566Z,99731.23
2018-11-23T14:15:32.269Z,99723.40
2018-11-23T14:18:04.389Z,99716.26
2018-11-23T14:20:38.036Z,99720.88
2018-11-23T14:23:23.216Z,99722.12
2018-11-23T14:26:03.150Z,99720.00
2018-11-23T14:28:35.530Z,99713.82
2018-11-23T14:31:06.328Z,99710.86
2018-11-23T14:33:36.921Z,99706.91
2018-11-23T14:36:09.595Z,99704.34
2018-11-23T14:38:44.635Z,99694.95
2018-11-23T14:41:15.775Z,99691.55
2018-11-23T14:43:47.449Z,99693.14
2018-11-23T14:46:21.417Z,99692.33
2018-11-23T14:48:54.050Z,99694.61
2018-11-23T14:51:26.529Z,99691.09
2018-11-23T14:54:01.059Z,99682.85
2018-11-23T14:56:33.922Z,99672.84
2018-11-23T14:59:05.235Z,99680.05
2018-11-23T15:01:39.372Z,99686.23
2018-11-23T15:04:10.010Z,99689.56
2018-11-23T15:06:41.654Z,99685.44
2018-11-23T15:09:12.480Z,99690.69
2018-11-23T15:17:59.774Z,99697.02
2018-11-23T15:20:38.552Z,99700.04
2018-11-23T15:23:10.811Z,99709.95
2018-11-23T15:25:42.413Z,99708.49
2018-11-23T15:28:15.817Z,99709.40
2018-11-23T15:30:50.336Z,99703.37
2018-11-23T15:33:22.075Z,99696.61
2018-11-23T15:35:53.064Z,99696.07
2018-11-23T15:38:26.616Z,99698.37
2018-11-23T15:41:05.847Z,99693.05
2018-11-23T15:43:39.027Z,99690.66
2018-11-23T15:46:09.667Z,99692.78
2018-11-23T15:48:42.531Z,99687.50
2018-11-23T15:51:13.617Z,99686.87
2018-11-23T15:53:46.062Z,99684.15
2018-11-23T15:56:19.033Z,99685.41
2018-11-23T15:58:50.137Z,99681.49
2018-11-23T16:01:20.902Z,99677.39
2018-11-23T16:03:54.317Z,99676.45
2018-11-23T16:06:27.017Z,99683.74
2018-11-23T16:09:05.384Z,99679.77
2018-11-23T16:11:40.539Z,99679.42
2018-11-23T16:14:15.850Z,99679.42
2018-11-23T16:16:49.358Z,99679.27
2018-11-23T16:19:21.167Z,99670.91
2018-11-23T16:21:53.190Z,99667.30
2018-11-23T16:24:23.838Z,99667.34
2018-11-23T16:26:54.409Z,99666.97
2018-11-23T16:29:27.271Z,99671.94
2018-11-23T16:32:01.200Z,99668.84
2018-11-23T16:34:32.139Z,99666.89
2018-11-23T16:37:04.077Z,99664.09
2018-11-23T16:39:35.017Z,99664.45
2018-11-23T16:42:08.509Z,99659.16
2018-11-23T16:44:41.481Z,99664.48
2018-11-23T16:47:12.424Z,99660.58
2018-11-23T16:49:45.419Z,99652.23
2018-11-23T16:52:18.301Z,99652.64
2018-11-23T16:54:51.214Z,99650.80
2018-11-23T16:57:22.569Z,99653.45
2018-11-23T16:59:55.689Z,99651.98
2018-11-23T17:02:26.361Z,99652.19
2018-11-23T17:04:59.268Z,99649.45
2018-11-23T17:07:30.083Z,99648.02
2018-11-23T17:10:03.829Z,99638.62
2018-11-23T17:12:36.591Z,99652.93
2018-11-23T17:15:11.752Z,99638.65
2018-11-23T17:17:57.417Z,99635.16
2018-11-23T17:20:30.070Z,99640.56
2018-11-23T17:23:03.641Z,99637.77
2018-11-23T17:25:36.730Z,99635.77
2018-11-23T17:28:15.230Z,99630.78
2018-11-23T17:30:48.257Z,99630.34
2018-11-23T17:33:19.089Z,99617.34
2018-11-23T17:35:49.946Z,99618.31
2018-11-23T17:38:25.337Z,99614.56
2018-11-23T17:40:59.292Z,99617.14
2018-11-23T17:43:35.741Z,99617.05
2018-11-23T17:46:09.096Z,99613.95
2018-11-23T17:48:42.845Z,99605.65
2018-11-23T17:51:15.772Z,99609.64
2018-11-23T17:53:50.584Z,99607.23
2018-11-23T17:56:21.598Z,99599.21
2018-11-23T17:58:53.400Z,99601.22
2018-11-23T18:01:24.018Z,99595.01
2018-11-23T18:03:54.631Z,99602.90
2018-11-23T18:06:28.170Z,99593.53
2018-11-23T18:09:08.143Z,99588.28
2018-11-23T18:11:40.245Z,99589.40
2018-11-23T18:14:10.793Z,99578.38
2018-11-23T18:16:46.415Z,99574.05
2018-11-23T18:19:17.382Z,99572.07
2018-11-23T18:21:50.859Z,99578.65
2018-11-23T18:24:23.666Z,99566.45
2018-11-23T18:26:56.930Z,99570.66
2018-11-23T18:29:27.889Z,99567.40
2018-11-23T18:32:00.916Z,99566.41
2018-11-23T18:34:31.830Z,99558.22
2018-11-23T18:37:04.827Z,99555.94
2018-11-23T18:39:38.014Z,99549.16
2018-11-23T18:42:09.088Z,99548.59
2018-11-23T18:44:44.630Z,99533.66
2018-11-23T18:47:15.099Z,99534.02
2018-11-23T18:49:45.628Z,99545.06
2018-11-23T18:52:15.870Z,99545.66
2018-11-23T18:54:46.700Z,99545.70
2018-11-23T18:57:19.875Z,99541.54
2018-11-23T18:59:53.003Z,99544.79
2018-11-23T19:02:32.406Z,99542.83
2018-11-23T19:05:02.970Z,99550.46
2018-11-23T19:07:33.825Z,99546.66
2018-11-23T19:10:09.700Z,99547.97
2018-11-23T19:12:54.788Z,99542.49
2018-11-23T19:15:27.999Z,99545.13
2018-11-23T19:18:12.348Z,99540.86
2018-11-23T19:20:46.670Z,99530.55
2018-11-23T19:23:18.744Z,99537.20
2018-11-23T19:25:53.898Z,99539.72
2018-11-23T19:28:30.288Z,99520.58
2018-11-23T19:31:03.810Z,99523.04
2018-11-23T19:33:37.159Z,99517.80
2018-11-23T19:36:09.781Z,99512.16
2018-11-23T19:38:48.959Z,99521.70
2018-11-23T19:41:23.891Z,99520.26
2018-11-23T19:43:56.519Z,99514.69
2018-11-23T19:46:27.109Z,99510.35
2018-11-23T19:49:01.905Z,99496.25
2018-11-23T19:51:33.238Z,99488.80
2018-11-23T19:54:05.494Z,99488.67
2018-11-23T19:56:37.084Z,99476.08
2018-11-23T19:59:08.204Z,99482.32
2018-11-23T20:01:41.603Z,99483.53
2018-11-23T20:04:12.257Z,99486.05
2018-11-23T20:06:45.404Z,99494.74
2018-11-23T20:09:19.314Z,99474.98
2018-11-23T20:11:52.543Z,99481.55
2018-11-23T20:14:25.591Z,99476.08
2018-11-23T20:16:59.454Z,99464.17
2018-11-23T20:19:30.313Z,99456.68
2018-11-23T20:22:04.347Z,99447.29
2018-11-23T20:24:36.188Z,99444.27
2018-11-23T20:27:09.673Z,99436.87
2018-11-23T20:29:44.134Z,99433.11
2018-11-23T20:32:16.255Z,99447.84
2018-11-23T20:34:47.032Z,99446.64
2018-11-23T20:37:23.033Z,99435.66
2018-11-23T20:39:56.233Z,99425.83
2018-11-23T20:42:29.324Z,99422.95
2018-11-23T20:45:02.938Z,99422.11
2018-11-23T20:47:38.253Z,99404.77
2018-11-23T20:50:10.970Z,99408.99
2018-11-23T20:53:01.765Z,99401.68
2018-11-23T20:55:37.111Z,99391.86
2018-11-23T20:58:13.131Z,99387.12
2018-11-23T21:00:49.862Z,99386.94
2018-11-23T21:03:22.759Z,99382.07
2018-11-23T21:05:53.798Z,99386.78
2018-11-23T21:08:26.594Z,99372.84
2018-11-23T21:10:57.597Z,99356.80
2018-11-23T21:13:34.162Z,99356.44
2018-11-23T21:16:06.624Z,99350.08
2018-11-23T21:18:37.601Z,99348.69
2018-11-23T21:21:10.024Z,99348.77
2018-11-23T21:23:44.474Z,99348.47
2018-11-23T21:26:16.394Z,99351.85
2018-11-23T21:28:47.390Z,99349.45
2018-11-23T21:31:20.797Z,99351.97
2018-11-23T21:33:53.650Z,99345.56
2018-11-23T21:36:24.551Z,99337.52
2018-11-23T21:38:56.905Z,99331.13
2018-11-23T21:41:29.801Z,99327.96
2018-11-23T21:44:01.614Z,99325.45
2018-11-23T21:46:36.369Z,99325.52
2018-11-23T21:49:08.810Z,99318.77
2018-11-23T21:51:40.210Z,99312.11
2018-11-23T21:54:12.597Z,99305.91
2018-11-23T21:56:47.448Z,99317.81
2018-11-23T21:59:25.356Z,99313.67
2018-11-23T22:02:02.792Z,99304.07
2018-11-23T22:04:31.600Z,99303.67
2018-11-23T22:07:06.776Z,99297.48
2018-11-23T22:09:41.317Z,99297.53
2018-11-23T22:12:20.424Z,99297.64
2018-11-23T22:14:54.953Z,99302.63
2018-11-23T22:17:28.710Z,99297.97
2018-11-23T22:20:01.031Z,99279.39
2018-11-23T22:22:31.722Z,99269.23
2018-11-23T22:25:05.636Z,99267.16
2018-11-23T22:27:38.710Z,99281.23
2018-11-23T22:30:11.743Z,99279.27
2018-11-23T22:32:53.741Z,99284.66
2018-11-23T22:35:31.742Z,99288.47
2018-11-23T22:38:03.925Z,99273.44
2018-11-23T22:40:36.371Z,99262.06
2018-11-23T22:43:07.700Z,99257.02
2018-11-23T22:45:40.887Z,99235.59
2018-11-23T22:48:12.904Z,99243.77
2018-11-23T22:50:52.089Z,99233.89
2018-11-23T22:53:28.596Z,99239.73
2018-11-23T22:56:06.865Z,99239.84
2018-11-23T22:58:37.633Z,99204.80
2018-11-23T23:01:10.422Z,99250.59
2018-11-23T23:03:43.752Z,99249.39
2018-11-23T23:06:21.745Z,99248.85
2018-11-23T23:08:53.735Z,99236.71
2018-11-23T23:11:25.358Z,99228.92
2018-11-23T23:13:57.620Z,99232.72
2018-11-23T23:16:36.494Z,99239.31
2018-11-23T23:19:10.396Z,99238.45
2018-11-23T23:21:47.244Z,99243.89
2018-11-23T23:24:21.795Z,99243.00
2018-11-23T23:26:56.252Z,99240.74
2018-11-23T23:29:30.476Z,99232.09
2018-11-23T23:32:03.752Z,99229.28
2018-11-23T23:34:40.708Z,99228.91
2018-11-23T23:37:12.594Z,99221.26
2018-11-23T23:39:48.687Z,99226.34
2018-11-23T23:42:25.497Z,99222.23
2018-11-23T23:45:00.871Z,99213.30
2018-11-23T23:47:32.950Z,99204.71
2018-11-23T23:50:08.689Z,99212.56
2018-11-23T23:52:41.672Z,99203.91
2018-11-23T23:55:25.718Z,99033.59
2018-11-23T23:57:58.466Z,99182.39
